.
WxDataArchive / Data Records for 2010-07-04
2010-07-03 July 2010 2010-07-05

Data Records for Sunday, 04 July 2010

Time	Temp	Chill	HIndex	Humid	Dewpt	 Wind 	HiWind	WindDir	Rain 	Barom 
-----	----	-----	------	-----	-----	------	------	-------	-----	----- 
00:00	66.0	66.0	66.0	73	57.1	0	0	---	0.00	30.027 
00:05	66.0	66.0	66.0	73	57.1	0	0	---	0.00	30.027 
00:10	65.8	65.8	65.8	73	56.9	0	0	---	0.00	30.027 
00:15	65.6	65.6	65.6	74	57.1	0	0	---	0.00	30.026 
00:20	65.6	65.6	65.6	74	57.1	0	0	---	0.00	30.026 
00:25	65.5	65.5	65.5	75	57.4	0	0	---	0.00	30.026 
00:30	65.2	65.2	65.2	76	57.4	0	0	---	0.00	30.028 
00:35	65.0	65.0	65.0	75	56.9	0	0	---	0.00	30.028 
00:40	64.8	64.8	64.8	76	57.0	0	0	---	0.00	30.028 
00:45	64.7	64.7	64.7	77	57.3	0	0	---	0.00	30.025 
00:50	64.7	64.7	64.7	78	57.7	0	0	---	0.00	30.025 
00:55	64.5	64.5	64.5	78	57.5	0	0	---	0.00	30.025 
01:00	64.3	64.3	64.3	78	57.3	0	0	---	0.00	30.022 
01:05	64.2	64.2	64.2	78	57.2	0	0	---	0.00	30.022 
01:10	64.0	64.0	64.0	79	57.4	0	0	---	0.00	30.022 
01:15	63.9	63.9	63.9	79	57.3	0	0	---	0.00	30.018 
01:20	63.9	63.9	63.9	80	57.6	0	0	---	0.00	30.018 
01:25	63.7	63.7	63.7	80	57.4	0	0	---	0.00	30.018 
01:30	63.5	63.5	63.5	81	57.6	0	0	---	0.00	30.019 
01:35	63.4	63.4	63.4	81	57.5	0	0	---	0.00	30.019 
01:40	63.4	63.4	63.4	82	57.8	0	0	---	0.00	30.019 
01:45	63.2	63.2	63.2	83	57.9	0	0	---	0.00	30.018 
01:50	63.2	63.2	63.2	83	57.9	0	0	---	0.00	30.018 
01:55	63.1	63.1	63.1	84	58.2	0	0	---	0.00	30.018 
02:00	62.9	62.9	62.9	84	58.0	0	0	---	0.00	30.016 
02:05	62.9	62.9	62.9	84	58.0	0	0	---	0.00	30.016 
02:10	62.7	62.7	62.7	84	57.8	0	0	---	0.00	30.016 
02:15	62.6	62.6	62.6	85	58.0	0	0	---	0.00	30.012 
02:20	62.6	62.6	62.6	85	58.0	0	0	---	0.00	30.012 
02:25	62.4	62.4	62.4	86	58.2	0	0	---	0.00	30.012 
02:30	62.4	62.4	62.4	86	58.2	0	0	---	0.00	30.014 
02:35	62.3	62.3	62.3	86	58.1	0	0	---	0.00	30.014 
02:40	62.3	62.3	62.3	87	58.4	0	0	---	0.00	30.014 
02:45	62.1	62.1	62.1	87	58.2	0	0	---	0.00	30.011 
02:50	62.1	62.1	62.1	87	58.2	0	0	---	0.00	30.011 
02:55	62.1	62.1	62.1	87	58.2	0	0	---	0.00	30.011 
03:00	62.3	62.3	62.3	88	58.7	0	0	---	0.00	30.011 
03:05	62.3	62.3	62.3	88	58.7	0	0	---	0.00	30.011 
03:10	62.3	62.3	62.3	88	58.7	0	0	---	0.00	30.011 
03:15	62.1	62.1	62.1	88	58.5	0	0	---	0.00	30.008 
03:20	62.1	62.1	62.1	88	58.5	0	0	---	0.00	30.008 
03:25	62.3	62.3	62.3	88	58.7	0	0	---	0.00	30.008 
03:30	62.3	62.3	62.3	88	58.7	0	0	---	0.00	30.006 
03:35	62.4	62.4	62.4	88	58.8	0	0	---	0.00	30.006 
03:40	62.4	62.4	62.4	88	58.8	0	0	---	0.00	30.006 
03:45	62.6	62.6	62.6	88	59.0	0	0	---	0.00	29.999 
03:50	62.7	62.7	62.7	88	59.1	0	0	---	0.00	29.999 
03:55	62.9	62.9	62.9	88	59.3	0	0	---	0.00	29.999 
04:00	63.1	63.1	63.1	88	59.5	0	0	---	0.00	29.997 
04:05	63.1	63.1	63.1	88	59.5	0	0	---	0.00	29.997 
04:10	63.1	63.1	63.1	88	59.5	0	0	---	0.00	29.997 
04:15	63.1	63.1	63.1	88	59.5	0	0	---	0.00	29.994 
04:20	63.1	63.1	63.1	88	59.5	0	0	---	0.00	29.994 
04:25	63.2	63.2	63.2	88	59.6	0	0	---	0.00	29.994 
04:30	63.2	63.2	63.2	88	59.6	0	0	---	0.00	29.993 
04:35	63.2	63.2	63.2	89	59.9	0	0	---	0.00	29.993 
04:40	63.4	63.4	63.4	89	60.1	0	0	---	0.00	29.993 
04:45	63.4	63.4	63.4	89	60.1	0	0	---	0.00	29.994 
04:50	63.4	63.4	63.4	89	60.1	0	0	---	0.00	29.994 
04:55	63.4	63.4	63.4	89	60.1	0	0	---	0.00	29.994 
05:00	63.4	63.4	63.4	89	60.1	0	0	---	0.00	29.996 
05:05	63.4	63.4	63.4	89	60.1	0	0	---	0.00	29.996 
05:10	63.4	63.4	63.4	89	60.1	0	0	---	0.00	29.996 
05:15	63.5	63.5	63.5	90	60.5	0	0	---	0.00	29.995 
05:20	63.5	63.5	63.5	90	60.5	0	0	---	0.00	29.995 
05:25	63.7	63.7	63.7	90	60.7	0	0	---	0.00	29.995 
05:30	63.7	63.7	63.7	90	60.7	0	0	---	0.00	29.993 
05:35	63.7	63.7	63.7	90	60.7	0	0	---	0.00	29.993 
05:40	63.9	63.9	63.9	91	61.2	0	0	---	0.00	29.993 
05:45	63.9	63.9	63.9	91	61.2	0	0	---	0.00	29.999 
05:50	63.7	63.7	63.7	91	61.0	0	0	---	0.00	29.999 
05:55	63.7	63.7	63.7	91	61.0	0	0	---	0.00	29.999 
06:00	63.7	63.7	63.7	91	61.0	0	0	---	0.00	30.004 
06:05	63.9	63.9	63.9	91	61.2	0	0	---	0.00	30.004 
06:10	63.9	63.9	63.9	92	61.5	0	0	---	0.00	30.004 
06:15	64.2	64.2	64.2	92	61.8	0	0	---	0.00	30.009 
06:20	64.2	64.2	64.2	92	61.8	0	0	---	0.00	30.009 
06:25	64.3	64.3	64.3	92	61.9	0	0	---	0.00	30.009 
06:30	64.3	64.3	64.3	92	61.9	0	0	---	0.00	30.013 
06:35	64.3	64.3	64.3	92	61.9	0	0	---	0.00	30.013 
06:40	64.3	64.3	64.3	92	61.9	0	0	---	0.00	30.013 
06:45	64.3	64.3	64.3	92	61.9	0	0	---	0.00	30.018 
06:50	64.5	64.5	64.5	92	62.1	0	0	---	0.00	30.018 
06:55	64.5	64.5	64.5	92	62.1	0	0	---	0.00	30.018 
07:00	64.7	64.7	64.7	92	62.3	0	0	---	0.00	30.023 
07:05	64.8	64.8	64.8	92	62.4	0	0	---	0.00	30.023 
07:10	65.2	65.2	65.2	92	62.8	0	0	---	0.00	30.023 
07:15	65.3	65.3	65.3	92	62.9	0	0	---	0.00	30.027 
07:20	65.6	65.6	65.6	92	63.2	0	0	---	0.00	30.027 
07:25	66.0	66.0	66.0	91	63.3	0	0	---	0.00	30.027 
07:30	66.6	66.6	66.6	91	63.9	0	0	---	0.00	30.025 
07:35	67.6	67.6	67.6	90	64.6	0	0	---	0.00	30.025 
07:40	68.3	68.3	68.3	88	64.6	0	0	---	0.00	30.025 
07:45	69.1	69.1	69.1	85	64.4	0	1	248	0.00	30.023 
07:50	69.9	69.9	69.9	84	64.8	0	1	270	0.00	30.023 
07:55	70.8	70.8	70.8	82	65.0	0	1	270	0.00	30.023 
08:00	71.8	71.8	71.8	81	65.6	0	1	270	0.00	30.021 
08:05	72.1	72.1	72.1	78	64.8	0	2	270	0.00	30.021 
08:10	72.3	72.3	72.3	78	65.0	0	1	270	0.00	30.021 
08:15	72.7	72.7	72.7	78	65.4	0	2	270	0.00	30.023 
08:20	73.0	73.0	73.0	78	65.7	0	1	270	0.00	30.023 
08:25	73.5	73.5	73.5	77	65.8	0	1	270	0.00	30.023 
08:30	74.2	74.2	74.2	77	66.5	0	1	270	0.00	30.023 
08:35	75.1	75.1	76.4	74	66.2	0	1	270	0.00	30.023 
08:40	76.1	76.1	77.6	73	66.8	0	1	270	0.00	30.023 
08:45	77.0	77.0	78.8	70	66.4	0	1	270	0.00	30.021 
08:50	77.4	77.4	79.2	69	66.4	0	2	270	0.00	30.021 
08:55	78.3	78.3	80.4	69	67.3	0	2	270	0.00	30.021 
09:00	78.8	78.8	80.9	67	66.9	0	5	270	0.00	30.018 
09:05	78.8	78.8	80.9	67	66.9	1	4	270	0.00	30.018 
09:10	79.4	79.4	81.6	66	67.0	0	3	270	0.00	30.018 
09:15	79.8	79.8	82.3	67	67.8	0	2	270	0.00	30.022 
09:20	79.9	79.9	82.2	65	67.1	0	2	270	0.00	30.022 
09:25	80.1	80.1	82.4	64	66.8	0	2	270	0.00	30.022 
09:30	80.1	80.1	82.4	64	66.8	0	3	270	0.00	30.023 
09:35	80.3	80.3	82.7	64	67.0	0	2	270	0.00	30.023 
09:40	80.7	80.7	83.2	64	67.4	0	2	270	0.00	30.023 
09:45	80.9	80.9	83.4	63	67.1	1	4	270	0.00	30.021 
09:50	81.1	81.1	83.5	62	66.8	1	2	270	0.00	30.021 
09:55	81.2	81.2	83.6	62	66.9	0	4	292	0.00	30.021 
10:00	81.8	81.8	84.5	62	67.5	1	4	270	0.00	30.019 
10:05	82.2	82.2	85.1	62	67.9	1	2	270	0.00	30.019 
10:10	82.4	82.4	85.2	61	67.6	1	4	292	0.00	30.019 
10:15	82.8	82.8	85.6	60	67.5	1	4	248	0.00	30.013 
10:20	83.0	83.0	86.4	62	68.6	1	4	270	0.00	30.013 
10:25	83.8	83.8	86.9	59	67.9	0	2	270	0.00	30.013 
10:30	84.0	84.0	87.3	59	68.1	0	2	315	0.00	30.009 
10:35	84.1	84.1	87.4	59	68.2	1	3	270	0.00	30.009 
10:40	84.5	84.5	87.5	57	67.6	1	2	270	0.00	30.009 
10:45	84.5	84.5	87.8	58	68.1	1	4	270	0.00	30.009 
10:50	84.7	84.7	87.3	55	66.7	1	4	270	0.00	30.009 
10:55	84.7	84.7	87.9	57	67.7	1	3	270	0.00	30.009 
11:00	84.7	84.7	87.9	57	67.7	1	3	270	0.00	30.008 
11:05	85.1	85.1	88.8	58	68.6	0	3	270	0.00	30.008 
11:10	85.3	85.3	88.0	54	66.7	1	4	270	0.00	30.008 
11:15	85.5	85.5	88.3	54	66.9	1	3	270	0.00	30.008 
11:20	85.9	85.9	88.3	52	66.2	1	2	270	0.00	30.008 
11:25	86.3	86.3	89.3	53	67.1	1	4	292	0.00	30.008 
11:30	86.7	86.7	90.3	54	68.0	1	3	270	0.00	30.007 
11:35	86.7	86.7	90.3	54	68.0	1	3	270	0.00	30.007 
11:40	87.0	87.0	90.8	54	68.3	0	2	270	0.00	30.007 
11:45	87.0	87.0	90.4	53	67.8	0	3	270	0.00	30.007 
11:50	87.4	87.4	91.5	54	68.7	1	5	270	0.00	30.007 
11:55	87.2	87.2	91.5	55	69.0	1	4	270	0.00	30.007 
12:00	87.4	87.4	91.1	53	68.1	1	5	270	0.00	30.002 
12:05	87.6	87.6	91.5	53	68.3	1	3	270	0.00	30.002 
12:10	87.8	87.8	92.2	54	69.0	1	2	270	0.00	30.002 
12:15	88.0	88.0	91.8	52	68.1	1	4	292	0.00	29.999 
12:20	88.0	88.0	91.4	51	67.6	1	3	270	0.00	29.999 
12:25	88.4	88.4	92.9	53	69.1	1	2	292	0.00	29.999 
12:30	88.6	88.6	92.9	52	68.7	1	3	292	0.00	29.995 
12:35	89.0	89.0	94.5	54	70.2	0	2	292	0.00	29.995 
12:40	89.3	89.3	94.2	52	69.3	2	4	270	0.00	29.995 
12:45	88.8	88.8	92.4	50	67.7	2	5	270	0.00	29.990 
12:50	88.8	88.8	92.8	51	68.3	1	3	270	0.00	29.990 
12:55	89.0	89.0	93.2	51	68.5	1	4	270	0.00	29.990 
13:00	89.0	89.0	93.2	51	68.5	2	4	270	0.00	29.990 
13:05	89.3	89.3	93.3	50	68.2	2	4	270	0.00	29.990 
13:10	89.3	89.3	93.7	51	68.8	1	3	315	0.00	29.990 
13:15	89.9	89.9	96.3	54	71.0	1	3	90	0.00	29.987 
13:20	90.1	90.1	93.9	48	67.7	1	3	90	0.00	29.987 
13:25	89.7	89.7	94.0	50	68.5	1	3	90	0.00	29.987 
13:30	89.9	89.9	93.5	48	67.5	2	5	270	0.00	29.986 
13:35	89.7	89.7	94.0	50	68.5	1	4	270	0.00	29.986 
13:40	89.9	89.9	94.4	50	68.7	1	4	270	0.00	29.986 
13:45	90.1	90.1	94.8	50	68.9	1	3	292	0.00	29.982 
13:50	90.3	90.3	94.3	48	67.9	2	5	270	0.00	29.982 
13:55	90.1	90.1	94.8	50	68.9	2	5	270	0.00	29.982 
14:00	89.7	89.7	94.0	50	68.5	1	4	248	0.00	29.980 
14:05	89.9	89.9	94.4	50	68.7	1	4	270	0.00	29.980 
14:10	90.5	90.5	95.5	50	69.3	2	5	248	0.00	29.980 
14:15	90.3	90.3	94.7	49	68.5	2	5	270	0.00	29.975 
14:20	90.3	90.3	94.7	49	68.5	1	4	270	0.00	29.975 
14:25	89.9	89.9	94.9	51	69.3	1	2	0	0.00	29.975 
14:30	90.3	90.3	95.2	50	69.1	0	2	270	0.00	29.971 
14:35	90.7	90.7	96.4	51	70.0	2	7	270	0.00	29.971 
14:40	91.2	91.2	95.5	47	68.1	2	5	270	0.00	29.971 
14:45	91.4	91.4	96.8	49	69.5	1	4	292	0.00	29.963 
14:50	91.2	91.2	95.9	48	68.7	1	2	292	0.00	29.963 
14:55	91.2	91.2	95.5	47	68.1	2	6	270	0.00	29.963 
15:00	88.4	88.4	93.3	54	69.6	2	3	248	0.00	29.961 
15:05	85.3	85.3	89.8	60	69.8	2	5	270	0.00	29.961 
15:10	82.8	82.8	87.0	66	70.3	1	4	270	0.00	29.961 
15:15	81.4	81.4	85.9	73	71.9	1	4	315	0.00	29.965 
15:20	79.8	79.8	83.1	74	70.8	1	4	248	0.00	29.965 
15:25	78.8	78.8	81.6	77	71.0	1	3	270	0.00	29.965 
15:30	78.1	78.1	80.5	79	71.0	1	2	270	0.00	29.966 
15:35	78.1	78.1	80.5	80	71.4	1	6	270	0.00	29.966 
15:40	78.1	78.1	80.5	82	72.1	1	6	270	0.00	29.966 
15:45	78.3	78.3	81.0	84	73.1	3	7	292	0.00	29.966 
15:50	77.7	77.7	79.8	84	72.5	1	5	270	0.00	29.966 
15:55	77.2	77.2	78.8	86	72.7	0	1	270	0.00	29.966 
16:00	77.2	77.2	78.7	87	73.0	0	0	---	0.00	29.966 
16:05	77.2	77.2	78.7	88	73.4	0	0	---	0.00	29.966 
16:10	77.4	77.4	79.1	89	73.9	0	0	---	0.00	29.966 
16:15	78.1	78.1	80.7	88	74.2	0	1	270	0.00	29.958 
16:20	78.5	78.5	81.4	84	73.2	1	4	270	0.00	29.958 
16:25	79.0	79.0	82.3	81	72.7	1	3	270	0.00	29.958 
16:30	79.9	79.9	83.1	73	70.4	2	5	270	0.00	29.950 
16:35	81.6	81.6	85.5	69	70.4	2	4	270	0.00	29.950 
16:40	82.2	82.2	85.5	64	68.8	2	5	292	0.00	29.950 
16:45	83.4	83.4	87.0	62	69.0	2	5	225	0.00	29.948 
16:50	84.1	84.1	87.4	59	68.2	1	5	225	0.00	29.948 
16:55	86.1	86.1	89.6	55	68.0	1	3	270	0.00	29.948 
17:00	87.6	87.6	90.7	51	67.2	1	4	270	0.00	29.944 
17:05	88.4	88.4	92.5	52	68.5	2	5	292	0.00	29.944 
17:10	89.7	89.7	93.2	48	67.4	2	5	270	0.00	29.944 
17:15	90.3	90.3	94.7	49	68.5	1	3	270	0.00	29.935 
17:20	90.7	90.7	94.1	46	67.0	1	4	270	0.00	29.935 
17:25	91.2	91.2	95.0	46	67.5	2	4	270	0.00	29.935 
17:30	91.2	91.2	95.0	46	67.5	2	4	270	0.00	29.928 
17:35	91.2	91.2	94.1	44	66.2	2	5	270	0.00	29.928 
17:40	91.0	91.0	94.2	45	66.7	2	4	270	0.00	29.928 
17:45	90.5	90.5	93.8	46	66.8	2	4	270	0.00	29.931 
17:50	90.1	90.1	93.5	47	67.1	1	4	270	0.00	29.931 
17:55	90.3	90.3	93.4	46	66.7	1	2	292	0.00	29.931 
18:00	91.0	91.0	94.6	46	67.3	1	4	270	0.00	29.927 
18:05	91.0	91.0	94.2	45	66.7	1	5	270	0.00	29.927 
18:10	90.7	90.7	93.7	45	66.4	2	6	292	0.00	29.927 
18:15	90.7	90.7	93.7	45	66.4	1	3	270	0.00	29.926 
18:20	90.5	90.5	93.3	45	66.2	1	3	270	0.00	29.926 
18:25	90.5	90.5	93.8	46	66.8	0	2	292	0.00	29.926 
18:30	90.3	90.3	93.0	45	66.0	2	9	270	0.00	29.926 
18:35	89.9	89.9	92.3	45	65.7	2	5	270	0.00	29.926 
18:40	89.9	89.9	92.7	46	66.3	1	3	270	0.00	29.926 
18:45	89.9	89.9	91.9	44	65.0	2	4	270	0.00	29.924 
18:50	89.9	89.9	92.3	45	65.7	2	4	270	0.00	29.924 
18:55	89.9	89.9	92.7	46	66.3	2	4	248	0.00	29.924 
19:00	89.7	89.7	92.8	47	66.7	1	4	248	0.00	29.925 
19:05	89.5	89.5	92.4	47	66.6	1	6	270	0.00	29.925 
19:10	89.5	89.5	92.1	46	65.9	2	6	248	0.00	29.925 
19:15	89.3	89.3	91.7	46	65.8	1	4	292	0.00	29.922 
19:20	89.3	89.3	92.1	47	66.4	1	3	270	0.00	29.922 
19:25	89.0	89.0	92.4	49	67.3	1	3	248	0.00	29.922 
19:30	88.8	88.8	91.6	48	66.5	1	3	292	0.00	29.923 
19:35	88.8	88.8	92.0	49	67.1	1	4	315	0.00	29.923 
19:40	88.6	88.6	91.7	49	67.0	1	3	315	0.00	29.923 
19:45	88.6	88.6	91.3	48	66.4	1	3	315	0.00	29.926 
19:50	88.4	88.4	91.3	49	66.8	1	2	315	0.00	29.926 
19:55	88.2	88.2	91.4	50	67.2	0	2	315	0.00	29.926 
20:00	88.2	88.2	91.4	50	67.2	0	2	315	0.00	29.931 
20:05	88.0	88.0	91.0	50	67.0	2	4	270	0.00	29.931 
20:10	88.0	88.0	91.0	50	67.0	1	3	270	0.00	29.931 
20:15	87.8	87.8	91.4	52	67.9	1	3	270	0.00	29.928 
20:20	87.4	87.4	90.7	52	67.6	0	3	270	0.00	29.928 
20:25	87.2	87.2	90.4	52	67.4	0	2	270	0.00	29.928 
20:30	87.0	87.0	90.4	53	67.8	0	2	270	0.00	29.926 
20:35	86.7	86.7	89.9	53	67.5	0	2	270	0.00	29.926 
20:40	86.5	86.5	89.9	54	67.8	0	2	270	0.00	29.926 
20:45	86.3	86.3	89.6	54	67.7	0	2	270	0.00	29.926 
20:50	86.1	86.1	89.6	55	68.0	0	2	270	0.00	29.926 
20:55	85.9	85.9	89.2	55	67.8	1	2	270	0.00	29.926 
21:00	85.9	85.9	89.6	56	68.3	0	1	270	0.00	29.923 
21:05	85.5	85.5	89.2	57	68.5	0	1	270	0.00	29.923 
21:10	85.3	85.3	88.8	57	68.3	1	3	270	0.00	29.923 
21:15	85.3	85.3	88.8	57	68.3	0	1	315	0.00	29.924 
21:20	85.3	85.3	89.2	58	68.8	0	3	248	0.00	29.924 
21:25	85.1	85.1	88.8	58	68.6	0	3	248	0.00	29.924 
21:30	85.1	85.1	89.1	59	69.1	1	4	248	0.00	29.931 
21:35	85.1	85.1	89.1	59	69.1	1	4	270	0.00	29.931 
21:40	84.9	84.9	88.8	59	68.9	0	2	270	0.00	29.931 
21:45	84.5	84.5	88.4	60	69.1	1	4	270	0.00	29.933 
21:50	84.3	84.3	88.3	61	69.4	0	2	270	0.00	29.933 
21:55	84.1	84.1	88.2	62	69.6	0	2	270	0.00	29.933 
22:00	83.8	83.8	88.0	63	69.8	0	2	270	0.00	29.939 
22:05	83.6	83.6	87.9	64	70.1	0	2	270	0.00	29.939 
22:10	83.4	83.4	87.6	64	69.9	0	1	270	0.00	29.939 
22:15	83.0	83.0	87.1	65	70.0	0	2	270	0.00	29.942 
22:20	82.8	82.8	86.7	65	69.8	0	1	270	0.00	29.942 
22:25	82.6	82.6	86.6	66	70.1	0	1	270	0.00	29.942 
22:30	82.2	82.2	86.1	67	70.1	0	1	270	0.00	29.947 
22:35	82.2	82.2	86.1	67	70.1	0	1	270	0.00	29.947 
22:40	82.0	82.0	86.0	68	70.4	0	1	270	0.00	29.947 
22:45	82.0	82.0	86.0	68	70.4	0	0	---	0.00	29.949 
22:50	81.8	81.8	85.9	69	70.6	0	0	---	0.00	29.949 
22:55	81.4	81.4	85.1	69	70.2	0	1	270	0.00	29.949 
23:00	81.4	81.4	85.3	70	70.7	0	1	270	0.00	29.949 
23:05	81.2	81.2	85.0	70	70.5	0	0	---	0.00	29.949 
23:10	81.1	81.1	85.0	71	70.8	0	1	270	0.00	29.949 
23:15	81.1	81.1	85.0	71	70.8	0	1	270	0.00	29.948 
23:20	81.1	81.1	85.0	71	70.8	0	1	270	0.00	29.948 
23:25	80.9	80.9	84.6	71	70.6	0	1	270	0.00	29.948 
23:30	80.9	80.9	84.8	72	71.0	0	1	270	0.00	29.949 
23:35	80.7	80.7	84.4	72	70.8	0	0	---	0.00	29.949 
23:40	80.7	80.7	84.6	73	71.2	0	1	270	0.00	29.949 
23:45	80.5	80.5	84.2	73	71.0	0	0	---	0.00	29.948 
23:50	80.3	80.3	83.9	73	70.8	0	0	---	0.00	29.948 
23:55	80.1	80.1	83.5	73	70.6	0	0	---	0.00	29.948 

CoCoRaHS
IN-AL-39
A2 Web Hosting
Creative Commons License
GoDaddy
search engine by freefind advanced

loaded 2018-11-16 10:39:52 • last modified 2010-11-18 10:43:29
Privacy PolicyDisclaimer
• wx.awcolley.com is powered by PmWiki v.2002016 •
• all content (unless otherwise noted) © 2018 A W Colley